Abrela — EAVW — position and weather

sailwx.info

Track history (hours):
 
Tides and Currents Weather Stations Pressure Air Temp Water Temp Dewpoint Dewpoint Depression Visibility Wind Speed Wind Dir Waves Ship Positions

Abrela

Last reported at 2017-Nov-17 16:15 UTC. Time now 2017-Nov-20 21:29 UTC.
Position N 43°38' W 005°59'.

Length 30 m.

MMSI: 224204490.

Date/timePositionNaut miles runAvg speedWind from/ knotsBaromVisibWave heightAir tempDewpointWater temp
2017-Nov-17 16:15N 43°38' W 005°59'1 2.7
2017-Nov-17 15:42N 43°39' W 006°01'36 2.4
2017-Nov-17 00:37N 43°49' W 005°13'1 1.8
2017-Nov-17 00:12N 43°49' W 005°14'1 1.8
2017-Nov-16 23:33N 43°50' W 005°16'6 0.3
2017-Nov-16 04:36N 43°52' W 005°24'13 5.8
2017-Nov-16 02:22N 43°41' W 005°33'3 6.3
2017-Nov-16 01:55N 43°39' W 005°35'2 6.2
2017-Nov-16 01:30N 43°37' W 005°37'3 6.3
2017-Nov-16 01:00N 43°34' W 005°40'2 0.2
2017-Nov-15 17:15N 43°33' W 005°42'0 0.8
2017-Nov-15 17:00N 43°33' W 005°42'4 8.6
2017-Nov-15 16:30N 43°38' W 005°41'5 9.4
2017-Nov-15 15:59N 43°42' W 005°41'69 1.8
2017-Nov-14 01:49N 43°47' W 007°17'0 1.1
2017-Nov-14 01:29N 43°47' W 007°16'  
2017-Nov-10 11:03N 43°44' W 006°05'0 0.7
2017-Nov-10 11:00N 43°44' W 006°05'1 1.1
2017-Nov-10 10:16N 43°45' W 006°05'38 4.9
2017-Nov-10 02:32N 43°49' W 005°13'0 3.3
2017-Nov-10 02:30N 43°49' W 005°13'7 0.3
2017-Nov-09 04:20N 43°45' W 005°05'4 9.7
2017-Nov-09 03:53N 43°47' W 005°10'10 8.6
2017-Nov-09 02:46N 43°52' W 005°22'0 0.6
2017-Nov-09 02:10N 43°52' W 005°21'2 1.6
2017-Nov-09 00:40N 43°52' W 005°25'11 1.7
2017-Nov-08 17:45N 43°52' W 005°41'1 1.9
2017-Nov-08 17:28N 43°52' W 005°41'1 0.2
2017-Nov-08 14:11N 43°52' W 005°42'1 4.1
2017-Nov-08 14:00N 43°52' W 005°43'7 3.3
2017-Nov-08 11:43N 43°52' W 005°53'  
Track history (hours):
 
Tides and Currents Weather Stations Pressure Air Temp Water Temp Dewpoint Dewpoint Depression Visibility Wind Speed Wind Dir Waves Ship Positions

Abrela

Last reported at 2017-Nov-17 16:15 UTC. Time now 2017-Nov-20 21:29 UTC.
Position N 43°38' W 005°59'.

Length 30 m.

MMSI: 224204490.

Date/timePositionNaut miles runAvg speedWind from/ knotsBaromVisibWave heightAir tempDewpointWater temp
2017-Nov-17 16:15N 43°38' W 005°59'1 2.7
2017-Nov-17 15:42N 43°39' W 006°01'36 2.4
2017-Nov-17 00:37N 43°49' W 005°13'1 1.8
2017-Nov-17 00:12N 43°49' W 005°14'1 1.8
2017-Nov-16 23:33N 43°50' W 005°16'6 0.3
2017-Nov-16 04:36N 43°52' W 005°24'13 5.8
2017-Nov-16 02:22N 43°41' W 005°33'3 6.3
2017-Nov-16 01:55N 43°39' W 005°35'2 6.2
2017-Nov-16 01:30N 43°37' W 005°37'3 6.3
2017-Nov-16 01:00N 43°34' W 005°40'2 0.2
2017-Nov-15 17:15N 43°33' W 005°42'0 0.8
2017-Nov-15 17:00N 43°33' W 005°42'4 8.6
2017-Nov-15 16:30N 43°38' W 005°41'5 9.4
2017-Nov-15 15:59N 43°42' W 005°41'69 1.8
2017-Nov-14 01:49N 43°47' W 007°17'0 1.1
2017-Nov-14 01:29N 43°47' W 007°16'  
2017-Nov-10 11:03N 43°44' W 006°05'0 0.7
2017-Nov-10 11:00N 43°44' W 006°05'1 1.1
2017-Nov-10 10:16N 43°45' W 006°05'38 4.9
2017-Nov-10 02:32N 43°49' W 005°13'0 3.3
2017-Nov-10 02:30N 43°49' W 005°13'7 0.3
2017-Nov-09 04:20N 43°45' W 005°05'4 9.7
2017-Nov-09 03:53N 43°47' W 005°10'10 8.6
2017-Nov-09 02:46N 43°52' W 005°22'0 0.6
2017-Nov-09 02:10N 43°52' W 005°21'2 1.6
2017-Nov-09 00:40N 43°52' W 005°25'11 1.7
2017-Nov-08 17:45N 43°52' W 005°41'1 1.9
2017-Nov-08 17:28N 43°52' W 005°41'1 0.2
2017-Nov-08 14:11N 43°52' W 005°42'1 4.1
2017-Nov-08 14:00N 43°52' W 005°43'7 3.3
2017-Nov-08 11:43N 43°52' W 005°53'  

Dump ship's entire track history